PST,Max TemperatureF,Mean TemperatureF,Min TemperatureF,Max Dew PointF,MeanDew PointF,Min DewpointF,Max Humidity, Mean Humidity, Min Humidity, Max Sea Level PressureIn, Mean Sea Level PressureIn, Min Sea Level PressureIn, Max VisibilityMiles, Mean VisibilityMiles, Min VisibilityMiles, Max Wind SpeedMPH, Mean Wind SpeedMPH, Max Gust SpeedMPH,PrecipitationIn, CloudCover, Events, WindDirDegrees
2011-11-1,78,58,37,31,25,13,59,34,8,29.94,29.89,29.84,,,,20,9,23,0.00,,,72
2011-11-2,66,61,55,19,4,-1,19,13,7,30.11,30.03,29.91,,,,38,26,46,0.00,,,60
2011-11-3,75,56,37,48,25,5,43,28,13,30.05,29.93,29.83,,,,18,6,23,0.00,,,294
2011-11-4,53,50,46,46,42,36,93,76,59,29.81,29.72,29.62,,,,28,15,35,0.53,,,240
2011-11-5,53,44,34,41,38,34,100,80,59,29.99,29.91,29.79,,,,17,6,22,0.02,,,234
2011-11-6,52,43,34,44,39,32,100,80,59,30.01,29.96,29.91,,,,21,4,24,0.02,,,229
2011-11-7,55,46,36,42,36,30,100,74,47,30.14,30.04,29.95,,,,14,5,20,0.03,,,271
2011-11-8,59,44,28,35,24,19,92,58,23,30.19,30.16,30.12,,,,24,9,28,0.00,,,52
2011-11-9,62,55,47,19,15,11,31,23,15,30.19,30.15,30.10,,,,31,18,41,0.00,,,53
2011-11-10,62,56,50,28,20,15,26,23,19,30.17,30.07,29.99,,,,32,16,39,0.00,,,61
2011-11-11,70,55,40,33,25,13,58,35,11,29.97,29.89,29.80,,,,15,3,17,0.00,,,63
2011-11-12,54,44,34,47,39,24,93,72,50,29.83,29.79,29.73,,,,13,6,17,0.76,,,58
2011-11-13,65,51,37,46,41,37,100,70,39,29.93,29.84,29.78,,,,13,4,15,0.00,,,35
2011-11-14,61,48,34,49,42,34,100,77,53,29.96,29.92,29.87,,,,17,7,22,0.00,,,279
2011-11-15,67,50,33,49,42,32,96,68,40,30.02,29.97,29.93,,,,16,6,20,0.00,,,82
2011-11-16,68,52,35,44,39,35,100,69,37,30.09,30.05,30.01,,,,23,10,28,0.00,,,52
2011-11-17,72,54,35,46,37,30,85,54,23,30.08,30.00,29.92,,,,14,5,18,0.00,,,30
2011-11-18,61,47,32,45,40,32,96,71,46,29.94,29.90,29.85,,,,18,8,21,0.00,,,226
2011-11-19,52,49,46,44,41,36,93,78,63,29.91,29.87,29.83,,,,18,12,23,0.00,,,235
2011-11-20,53,47,41,46,42,40,92,80,68,29.96,29.91,29.88,,,,15,7,17,0.00,,,223
2011-11-21,55,48,40,44,39,32,100,77,54,30.19,30.08,29.91,,,,15,5,20,0.13,,,271
2011-11-22,63,47,30,34,28,20,92,58,23,30.22,30.14,30.04,,,,22,8,26,0.00,,,48
2011-11-23,66,50,34,43,29,15,52,38,24,30.04,29.96,29.90,,,,16,4,20,0.00,,,19
2011-11-24,50,41,31,41,37,30,100,81,61,30.05,29.97,29.90,,,,16,3,20,0.00,,,271
2011-11-25,72,51,29,45,32,18,100,57,13,30.21,30.12,30.04,,,,23,5,29,0.00,,,48
2011-11-26,70,52,34,26,16,9,70,41,12,30.26,30.20,30.15,,,,29,11,36,0.00,,,45
2011-11-27,69,64,59,16,11,9,15,13,10,30.27,30.21,30.16,,,,30,18,36,0.00,,,50
2011-11-28,79,62,45,28,18,7,28,18,7,30.14,30.09,30.03,,,,20,9,23,0.00,,,44
2011-11-29,77,59,40,27,20,14,55,32,9,30.09,30.04,29.99,,,,21,10,26,0.00,,,53
2011-11-30,72,53,33,43,31,21,56,36,16,30.02,29.85,29.64,,,,21,9,25,0.00,,,208